sensor_id;sensor_type;location;lat;lon;timestamp;P1;durP1;ratioP1;P2;durP2;ratioP2
73428;SDS011;61643;49.564;17.412;2024-03-08T00:01:21;26.35;;;11.25;;
73428;SDS011;61643;49.564;17.412;2024-03-08T00:03:47;30.55;;;12.10;;
73428;SDS011;61643;49.564;17.412;2024-03-08T00:06:13;25.55;;;11.18;;
73428;SDS011;61643;49.564;17.412;2024-03-08T00:08:41;32.95;;;13.13;;
73428;SDS011;61643;49.564;17.412;2024-03-08T00:11:07;25.60;;;11.73;;
73428;SDS011;61643;49.564;17.412;2024-03-08T00:13:33;26.63;;;11.18;;
73428;SDS011;61643;49.564;17.412;2024-03-08T00:15:59;32.17;;;12.00;;
73428;SDS011;61643;49.564;17.412;2024-03-08T00:18:25;26.77;;;10.50;;
73428;SDS011;61643;49.564;17.412;2024-03-08T00:20:52;30.35;;;12.75;;
73428;SDS011;61643;49.564;17.412;2024-03-08T00:23:18;26.70;;;11.75;;
73428;SDS011;61643;49.564;17.412;2024-03-08T00:25:44;24.65;;;9.93;;
73428;SDS011;61643;49.564;17.412;2024-03-08T00:28:10;26.83;;;11.75;;
73428;SDS011;61643;49.564;17.412;2024-03-08T00:30:39;29.33;;;11.80;;
73428;SDS011;61643;49.564;17.412;2024-03-08T00:33:05;29.80;;;12.40;;
73428;SDS011;61643;49.564;17.412;2024-03-08T00:35:31;31.55;;;11.43;;
73428;SDS011;61643;49.564;17.412;2024-03-08T00:37:57;27.77;;;12.20;;
73428;SDS011;61643;49.564;17.412;2024-03-08T00:40:23;30.50;;;12.43;;
73428;SDS011;61643;49.564;17.412;2024-03-08T00:42:49;28.55;;;11.98;;
73428;SDS011;61643;49.564;17.412;2024-03-08T00:45:15;31.88;;;13.48;;
73428;SDS011;61643;49.564;17.412;2024-03-08T00:47:41;26.35;;;11.45;;
73428;SDS011;61643;49.564;17.412;2024-03-08T00:55:01;27.00;;;11.52;;
73428;SDS011;61643;49.564;17.412;2024-03-08T00:57:27;23.40;;;11.50;;
73428;SDS011;61643;49.564;17.412;2024-03-08T00:59:53;28.52;;;11.88;;
73428;SDS011;61643;49.564;17.412;2024-03-08T01:02:19;29.95;;;12.15;;
73428;SDS011;61643;49.564;17.412;2024-03-08T01:04:46;29.27;;;12.27;;
73428;SDS011;61643;49.564;17.412;2024-03-08T01:07:12;28.00;;;11.40;;
73428;SDS011;61643;49.564;17.412;2024-03-08T01:09:38;28.88;;;12.02;;
73428;SDS011;61643;49.564;17.412;2024-03-08T01:12:04;29.60;;;11.85;;
73428;SDS011;61643;49.564;17.412;2024-03-08T01:14:32;31.52;;;12.77;;
73428;SDS011;61643;49.564;17.412;2024-03-08T01:16:58;28.70;;;12.80;;
73428;SDS011;61643;49.564;17.412;2024-03-08T01:19:24;30.92;;;11.85;;
73428;SDS011;61643;49.564;17.412;2024-03-08T01:21:50;29.38;;;11.95;;
73428;SDS011;61643;49.564;17.412;2024-03-08T01:24:16;29.58;;;12.30;;
73428;SDS011;61643;49.564;17.412;2024-03-08T01:26:42;27.63;;;11.48;;
73428;SDS011;61643;49.564;17.412;2024-03-08T01:29:08;30.75;;;12.25;;
73428;SDS011;61643;49.564;17.412;2024-03-08T01:31:35;32.13;;;12.23;;
73428;SDS011;61643;49.564;17.412;2024-03-08T01:34:02;26.00;;;11.38;;
73428;SDS011;61643;49.564;17.412;2024-03-08T01:36:28;26.27;;;11.45;;
73428;SDS011;61643;49.564;17.412;2024-03-08T01:38:54;26.67;;;11.73;;
73428;SDS011;61643;49.564;17.412;2024-03-08T01:41:20;26.02;;;11.10;;
73428;SDS011;61643;49.564;17.412;2024-03-08T01:43:46;32.28;;;12.98;;
73428;SDS011;61643;49.564;17.412;2024-03-08T01:46:13;27.17;;;11.27;;
73428;SDS011;61643;49.564;17.412;2024-03-08T01:48:43;26.65;;;11.45;;
73428;SDS011;61643;49.564;17.412;2024-03-08T01:51:10;25.52;;;11.13;;
73428;SDS011;61643;49.564;17.412;2024-03-08T01:53:37;26.23;;;11.18;;
73428;SDS011;61643;49.564;17.412;2024-03-08T01:56:04;26.15;;;11.40;;
73428;SDS011;61643;49.564;17.412;2024-03-08T01:58:31;26.73;;;12.50;;
73428;SDS011;61643;49.564;17.412;2024-03-08T02:00:58;28.17;;;12.30;;
73428;SDS011;61643;49.564;17.412;2024-03-08T02:03:25;25.50;;;11.60;;
73428;SDS011;61643;49.564;17.412;2024-03-08T02:05:51;29.00;;;12.45;;
73428;SDS011;61643;49.564;17.412;2024-03-08T02:08:17;27.42;;;11.70;;
73428;SDS011;61643;49.564;17.412;2024-03-08T02:10:44;31.10;;;12.93;;
73428;SDS011;61643;49.564;17.412;2024-03-08T02:13:10;28.40;;;13.00;;
73428;SDS011;61643;49.564;17.412;2024-03-08T02:18:36;28.15;;;11.82;;
73428;SDS011;61643;49.564;17.412;2024-03-08T02:21:05;27.42;;;11.48;;
73428;SDS011;61643;49.564;17.412;2024-03-08T02:23:32;30.83;;;11.70;;
73428;SDS011;61643;49.564;17.412;2024-03-08T02:25:58;31.95;;;12.18;;
73428;SDS011;61643;49.564;17.412;2024-03-08T02:28:24;26.35;;;11.80;;
73428;SDS011;61643;49.564;17.412;2024-03-08T02:30:51;28.90;;;12.25;;
73428;SDS011;61643;49.564;17.412;2024-03-08T02:33:20;30.95;;;12.23;;
73428;SDS011;61643;49.564;17.412;2024-03-08T02:35:46;31.92;;;13.07;;
73428;SDS011;61643;49.564;17.412;2024-03-08T02:38:17;38.25;;;14.73;;
73428;SDS011;61643;49.564;17.412;2024-03-08T02:40:44;29.65;;;12.82;;
73428;SDS011;61643;49.564;17.412;2024-03-08T02:43:15;34.05;;;13.52;;
73428;SDS011;61643;49.564;17.412;2024-03-08T02:45:43;30.65;;;12.13;;
73428;SDS011;61643;49.564;17.412;2024-03-08T02:48:12;32.10;;;12.63;;
73428;SDS011;61643;49.564;17.412;2024-03-08T02:50:39;31.10;;;13.45;;
73428;SDS011;61643;49.564;17.412;2024-03-08T02:53:05;32.40;;;12.18;;
73428;SDS011;61643;49.564;17.412;2024-03-08T02:55:32;29.42;;;12.50;;
73428;SDS011;61643;49.564;17.412;2024-03-08T02:58:01;29.75;;;12.65;;
73428;SDS011;61643;49.564;17.412;2024-03-08T03:00:29;29.30;;;13.05;;
73428;SDS011;61643;49.564;17.412;2024-03-08T03:02:56;31.45;;;12.95;;
73428;SDS011;61643;49.564;17.412;2024-03-08T03:05:23;31.38;;;12.57;;
73428;SDS011;61643;49.564;17.412;2024-03-08T03:07:49;38.22;;;13.52;;
73428;SDS011;61643;49.564;17.412;2024-03-08T03:10:16;28.10;;;11.85;;
73428;SDS011;61643;49.564;17.412;2024-03-08T03:12:43;31.13;;;12.40;;
73428;SDS011;61643;49.564;17.412;2024-03-08T03:15:14;29.67;;;12.15;;
73428;SDS011;61643;49.564;17.412;2024-03-08T03:17:45;28.02;;;11.43;;
73428;SDS011;61643;49.564;17.412;2024-03-08T03:20:13;30.70;;;11.57;;
73428;SDS011;61643;49.564;17.412;2024-03-08T03:22:40;29.20;;;12.82;;
73428;SDS011;61643;49.564;17.412;2024-03-08T03:25:07;30.33;;;13.25;;
73428;SDS011;61643;49.564;17.412;2024-03-08T03:30:01;29.27;;;11.30;;
73428;SDS011;61643;49.564;17.412;2024-03-08T03:32:49;30.83;;;12.90;;
73428;SDS011;61643;49.564;17.412;2024-03-08T03:35:16;31.98;;;12.07;;
73428;SDS011;61643;49.564;17.412;2024-03-08T03:37:43;33.22;;;13.05;;
73428;SDS011;61643;49.564;17.412;2024-03-08T03:40:17;32.53;;;13.13;;
73428;SDS011;61643;49.564;17.412;2024-03-08T03:42:44;32.90;;;12.68;;
73428;SDS011;61643;49.564;17.412;2024-03-08T03:45:11;30.63;;;12.13;;
73428;SDS011;61643;49.564;17.412;2024-03-08T03:47:37;32.97;;;13.25;;
73428;SDS011;61643;49.564;17.412;2024-03-08T03:50:06;31.85;;;12.82;;
73428;SDS011;61643;49.564;17.412;2024-03-08T03:52:33;32.65;;;13.55;;
73428;SDS011;61643;49.564;17.412;2024-03-08T03:54:59;30.67;;;12.57;;
73428;SDS011;61643;49.564;17.412;2024-03-08T03:57:25;22.75;;;11.25;;
73428;SDS011;61643;49.564;17.412;2024-03-08T03:59:51;28.17;;;10.55;;
73428;SDS011;61643;49.564;17.412;2024-03-08T04:02:17;28.48;;;11.27;;
73428;SDS011;61643;49.564;17.412;2024-03-08T04:04:43;28.35;;;11.80;;
73428;SDS011;61643;49.564;17.412;2024-03-08T04:07:11;28.48;;;11.27;;
73428;SDS011;61643;49.564;17.412;2024-03-08T04:09:37;30.40;;;11.80;;
73428;SDS011;61643;49.564;17.412;2024-03-08T04:12:03;28.08;;;12.23;;
73428;SDS011;61643;49.564;17.412;2024-03-08T04:14:30;26.63;;;12.32;;
73428;SDS011;61643;49.564;17.412;2024-03-08T04:16:55;29.02;;;12.35;;
73428;SDS011;61643;49.564;17.412;2024-03-08T04:19:22;27.98;;;11.88;;
73428;SDS011;61643;49.564;17.412;2024-03-08T04:21:48;26.65;;;11.48;;
73428;SDS011;61643;49.564;17.412;2024-03-08T04:24:14;28.30;;;11.55;;
73428;SDS011;61643;49.564;17.412;2024-03-08T04:26:40;32.33;;;12.65;;
73428;SDS011;61643;49.564;17.412;2024-03-08T04:29:06;30.73;;;13.15;;
73428;SDS011;61643;49.564;17.412;2024-03-08T04:31:32;28.15;;;12.52;;
73428;SDS011;61643;49.564;17.412;2024-03-08T04:33:58;31.55;;;12.68;;
73428;SDS011;61643;49.564;17.412;2024-03-08T04:36:24;31.80;;;12.57;;
73428;SDS011;61643;49.564;17.412;2024-03-08T04:38:50;31.35;;;12.77;;
73428;SDS011;61643;49.564;17.412;2024-03-08T04:41:17;33.00;;;13.27;;
73428;SDS011;61643;49.564;17.412;2024-03-08T04:43:44;33.28;;;12.10;;
73428;SDS011;61643;49.564;17.412;2024-03-08T04:46:10;27.58;;;12.35;;
73428;SDS011;61643;49.564;17.412;2024-03-08T04:48:36;27.98;;;12.20;;
73428;SDS011;61643;49.564;17.412;2024-03-08T04:51:02;31.40;;;12.48;;
73428;SDS011;61643;49.564;17.412;2024-03-08T04:53:29;29.42;;;11.35;;
73428;SDS011;61643;49.564;17.412;2024-03-08T04:55:57;28.33;;;11.95;;
73428;SDS011;61643;49.564;17.412;2024-03-08T04:58:24;29.95;;;12.07;;
73428;SDS011;61643;49.564;17.412;2024-03-08T05:00:49;31.98;;;13.00;;
73428;SDS011;61643;49.564;17.412;2024-03-08T05:03:16;32.10;;;13.43;;
73428;SDS011;61643;49.564;17.412;2024-03-08T05:05:42;28.13;;;12.02;;
73428;SDS011;61643;49.564;17.412;2024-03-08T05:08:08;33.30;;;13.45;;
73428;SDS011;61643;49.564;17.412;2024-03-08T05:10:34;31.52;;;13.65;;
73428;SDS011;61643;49.564;17.412;2024-03-08T05:13:00;32.33;;;13.93;;
73428;SDS011;61643;49.564;17.412;2024-03-08T05:15:26;28.17;;;12.10;;
73428;SDS011;61643;49.564;17.412;2024-03-08T05:17:52;29.02;;;11.30;;
73428;SDS011;61643;49.564;17.412;2024-03-08T05:20:18;31.33;;;10.70;;
73428;SDS011;61643;49.564;17.412;2024-03-08T05:22:45;35.72;;;13.82;;
73428;SDS011;61643;49.564;17.412;2024-03-08T05:25:11;31.27;;;12.52;;
73428;SDS011;61643;49.564;17.412;2024-03-08T05:27:39;30.95;;;12.95;;
73428;SDS011;61643;49.564;17.412;2024-03-08T05:30:06;26.77;;;12.20;;
73428;SDS011;61643;49.564;17.412;2024-03-08T05:32:32;27.40;;;11.63;;
73428;SDS011;61643;49.564;17.412;2024-03-08T05:34:58;27.52;;;12.63;;
73428;SDS011;61643;49.564;17.412;2024-03-08T05:37:24;32.72;;;13.52;;
73428;SDS011;61643;49.564;17.412;2024-03-08T05:39:50;32.33;;;12.65;;
73428;SDS011;61643;49.564;17.412;2024-03-08T05:42:16;30.67;;;13.32;;
73428;SDS011;61643;49.564;17.412;2024-03-08T05:44:42;33.55;;;13.30;;
73428;SDS011;61643;49.564;17.412;2024-03-08T05:47:09;32.15;;;13.25;;
73428;SDS011;61643;49.564;17.412;2024-03-08T05:49:36;37.67;;;13.80;;
73428;SDS011;61643;49.564;17.412;2024-03-08T05:52:02;31.95;;;12.57;;
73428;SDS011;61643;49.564;17.412;2024-03-08T05:54:28;29.00;;;12.05;;
73428;SDS011;61643;49.564;17.412;2024-03-08T05:56:54;32.45;;;13.65;;
73428;SDS011;61643;49.564;17.412;2024-03-08T05:59:20;28.42;;;12.65;;
73428;SDS011;61643;49.564;17.412;2024-03-08T06:01:48;32.22;;;13.52;;
73428;SDS011;61643;49.564;17.412;2024-03-08T06:04:15;31.60;;;12.52;;
73428;SDS011;61643;49.564;17.412;2024-03-08T06:06:43;34.15;;;13.60;;
73428;SDS011;61643;49.564;17.412;2024-03-08T06:09:09;30.27;;;12.52;;
73428;SDS011;61643;49.564;17.412;2024-03-08T06:11:39;32.20;;;13.18;;
73428;SDS011;61643;49.564;17.412;2024-03-08T06:14:05;32.63;;;13.10;;
73428;SDS011;61643;49.564;17.412;2024-03-08T06:16:31;31.90;;;13.93;;
73428;SDS011;61643;49.564;17.412;2024-03-08T06:18:59;34.53;;;13.32;;
73428;SDS011;61643;49.564;17.412;2024-03-08T06:21:27;31.35;;;12.65;;
73428;SDS011;61643;49.564;17.412;2024-03-08T06:23:53;32.00;;;12.77;;
73428;SDS011;61643;49.564;17.412;2024-03-08T06:26:25;33.22;;;13.00;;
73428;SDS011;61643;49.564;17.412;2024-03-08T06:36:11;30.05;;;12.52;;
73428;SDS011;61643;49.564;17.412;2024-03-08T06:38:37;28.60;;;11.68;;
73428;SDS011;61643;49.564;17.412;2024-03-08T06:41:08;30.98;;;13.02;;
73428;SDS011;61643;49.564;17.412;2024-03-08T06:43:34;32.95;;;14.02;;
73428;SDS011;61643;49.564;17.412;2024-03-08T06:46:01;28.23;;;12.65;;
73428;SDS011;61643;49.564;17.412;2024-03-08T06:48:29;32.20;;;13.20;;
73428;SDS011;61643;49.564;17.412;2024-03-08T06:50:55;33.25;;;13.45;;
73428;SDS011;61643;49.564;17.412;2024-03-08T06:53:21;35.63;;;14.98;;
73428;SDS011;61643;49.564;17.412;2024-03-08T06:55:48;30.60;;;12.88;;
73428;SDS011;61643;49.564;17.412;2024-03-08T06:58:14;33.30;;;13.63;;
73428;SDS011;61643;49.564;17.412;2024-03-08T07:00:40;37.67;;;14.38;;
73428;SDS011;61643;49.564;17.412;2024-03-08T07:03:09;37.03;;;14.30;;
73428;SDS011;61643;49.564;17.412;2024-03-08T07:05:37;33.22;;;13.85;;
73428;SDS011;61643;49.564;17.412;2024-03-08T07:08:05;35.58;;;13.95;;
73428;SDS011;61643;49.564;17.412;2024-03-08T07:10:31;33.50;;;13.23;;
73428;SDS011;61643;49.564;17.412;2024-03-08T07:12:57;32.88;;;13.82;;
73428;SDS011;61643;49.564;17.412;2024-03-08T07:15:24;30.83;;;12.55;;
73428;SDS011;61643;49.564;17.412;2024-03-08T07:17:50;34.97;;;13.75;;
73428;SDS011;61643;49.564;17.412;2024-03-08T07:20:18;32.08;;;13.50;;
73428;SDS011;61643;49.564;17.412;2024-03-08T07:22:45;32.47;;;14.15;;
73428;SDS011;61643;49.564;17.412;2024-03-08T07:25:18;34.38;;;13.55;;
73428;SDS011;61643;49.564;17.412;2024-03-08T07:27:44;38.40;;;15.27;;
73428;SDS011;61643;49.564;17.412;2024-03-08T07:30:11;34.45;;;15.52;;
73428;SDS011;61643;49.564;17.412;2024-03-08T07:32:38;31.20;;;13.65;;
73428;SDS011;61643;49.564;17.412;2024-03-08T07:35:04;41.42;;;18.30;;
73428;SDS011;61643;49.564;17.412;2024-03-08T07:37:30;42.63;;;17.23;;
73428;SDS011;61643;49.564;17.412;2024-03-08T07:39:57;36.38;;;15.85;;
73428;SDS011;61643;49.564;17.412;2024-03-08T07:42:23;35.95;;;13.70;;
73428;SDS011;61643;49.564;17.412;2024-03-08T07:44:49;34.65;;;13.75;;
73428;SDS011;61643;49.564;17.412;2024-03-08T07:47:15;32.17;;;13.70;;
73428;SDS011;61643;49.564;17.412;2024-03-08T07:49:43;32.65;;;13.75;;
73428;SDS011;61643;49.564;17.412;2024-03-08T07:52:09;31.63;;;14.10;;
73428;SDS011;61643;49.564;17.412;2024-03-08T07:54:41;35.30;;;14.10;;
73428;SDS011;61643;49.564;17.412;2024-03-08T07:57:07;32.60;;;14.07;;
73428;SDS011;61643;49.564;17.412;2024-03-08T07:59:33;33.85;;;14.25;;
73428;SDS011;61643;49.564;17.412;2024-03-08T08:01:59;31.90;;;13.70;;
73428;SDS011;61643;49.564;17.412;2024-03-08T08:04:25;33.20;;;14.40;;
73428;SDS011;61643;49.564;17.412;2024-03-08T08:06:52;34.28;;;14.43;;
73428;SDS011;61643;49.564;17.412;2024-03-08T08:09:20;36.33;;;14.18;;
73428;SDS011;61643;49.564;17.412;2024-03-08T08:11:54;36.47;;;13.57;;
73428;SDS011;61643;49.564;17.412;2024-03-08T08:14:20;31.92;;;13.63;;
73428;SDS011;61643;49.564;17.412;2024-03-08T08:16:49;34.85;;;14.98;;
73428;SDS011;61643;49.564;17.412;2024-03-08T08:19:18;37.00;;;14.13;;
73428;SDS011;61643;49.564;17.412;2024-03-08T08:21:44;33.45;;;14.05;;
73428;SDS011;61643;49.564;17.412;2024-03-08T08:24:11;33.70;;;14.93;;
73428;SDS011;61643;49.564;17.412;2024-03-08T08:26:37;34.95;;;14.15;;
73428;SDS011;61643;49.564;17.412;2024-03-08T08:29:03;33.78;;;14.02;;
73428;SDS011;61643;49.564;17.412;2024-03-08T08:31:30;34.97;;;14.80;;
73428;SDS011;61643;49.564;17.412;2024-03-08T08:33:58;38.95;;;14.98;;
73428;SDS011;61643;49.564;17.412;2024-03-08T08:36:25;33.05;;;14.13;;
73428;SDS011;61643;49.564;17.412;2024-03-08T08:38:51;30.58;;;12.98;;
73428;SDS011;61643;49.564;17.412;2024-03-08T08:41:20;27.02;;;11.45;;
73428;SDS011;61643;49.564;17.412;2024-03-08T08:43:47;28.77;;;11.98;;
73428;SDS011;61643;49.564;17.412;2024-03-08T08:46:17;30.45;;;13.07;;
73428;SDS011;61643;49.564;17.412;2024-03-08T08:48:44;33.33;;;12.55;;
73428;SDS011;61643;49.564;17.412;2024-03-08T08:51:13;32.30;;;11.98;;
73428;SDS011;61643;49.564;17.412;2024-03-08T08:53:39;28.77;;;12.25;;
73428;SDS011;61643;49.564;17.412;2024-03-08T08:56:13;27.85;;;11.40;;
73428;SDS011;61643;49.564;17.412;2024-03-08T08:58:42;26.40;;;11.52;;
73428;SDS011;61643;49.564;17.412;2024-03-08T09:01:09;29.08;;;11.27;;
73428;SDS011;61643;49.564;17.412;2024-03-08T09:03:37;27.17;;;12.15;;
73428;SDS011;61643;49.564;17.412;2024-03-08T09:06:09;24.98;;;11.23;;
73428;SDS011;61643;49.564;17.412;2024-03-08T09:08:35;26.88;;;10.95;;
73428;SDS011;61643;49.564;17.412;2024-03-08T09:11:02;25.10;;;11.52;;
73428;SDS011;61643;49.564;17.412;2024-03-08T09:13:28;27.38;;;11.70;;
73428;SDS011;61643;49.564;17.412;2024-03-08T09:15:54;27.55;;;12.43;;
73428;SDS011;61643;49.564;17.412;2024-03-08T09:18:20;30.73;;;13.55;;
73428;SDS011;61643;49.564;17.412;2024-03-08T09:20:46;30.98;;;13.02;;
73428;SDS011;61643;49.564;17.412;2024-03-08T09:23:12;28.65;;;13.15;;
73428;SDS011;61643;49.564;17.412;2024-03-08T09:25:38;26.15;;;12.02;;
73428;SDS011;61643;49.564;17.412;2024-03-08T09:28:04;33.35;;;13.10;;
73428;SDS011;61643;49.564;17.412;2024-03-08T09:30:31;30.20;;;13.07;;
73428;SDS011;61643;49.564;17.412;2024-03-08T09:32:57;31.83;;;13.45;;
73428;SDS011;61643;49.564;17.412;2024-03-08T09:35:23;33.17;;;13.93;;
73428;SDS011;61643;49.564;17.412;2024-03-08T09:37:49;32.03;;;13.60;;
73428;SDS011;61643;49.564;17.412;2024-03-08T09:40:17;32.08;;;14.93;;
73428;SDS011;61643;49.564;17.412;2024-03-08T09:45:12;33.42;;;15.27;;
73428;SDS011;61643;49.564;17.412;2024-03-08T09:47:41;32.30;;;13.35;;
73428;SDS011;61643;49.564;17.412;2024-03-08T09:50:08;30.65;;;14.27;;
73428;SDS011;61643;49.564;17.412;2024-03-08T09:52:47;33.90;;;15.45;;
73428;SDS011;61643;49.564;17.412;2024-03-08T09:55:14;34.22;;;13.90;;
73428;SDS011;61643;49.564;17.412;2024-03-08T09:57:43;30.15;;;13.20;;
73428;SDS011;61643;49.564;17.412;2024-03-08T10:00:28;29.83;;;12.88;;
73428;SDS011;61643;49.564;17.412;2024-03-08T10:02:54;30.02;;;13.10;;
73428;SDS011;61643;49.564;17.412;2024-03-08T10:05:20;31.52;;;13.55;;
73428;SDS011;61643;49.564;17.412;2024-03-08T10:07:47;29.83;;;13.82;;
73428;SDS011;61643;49.564;17.412;2024-03-08T10:10:13;34.22;;;14.15;;
73428;SDS011;61643;49.564;17.412;2024-03-08T10:12:39;34.03;;;14.98;;
73428;SDS011;61643;49.564;17.412;2024-03-08T10:15:07;37.70;;;15.90;;
73428;SDS011;61643;49.564;17.412;2024-03-08T10:17:34;38.63;;;14.82;;
73428;SDS011;61643;49.564;17.412;2024-03-08T10:20:00;37.20;;;15.35;;
73428;SDS011;61643;49.564;17.412;2024-03-08T10:22:28;33.70;;;14.25;;
73428;SDS011;61643;49.564;17.412;2024-03-08T10:24:55;32.75;;;14.02;;
73428;SDS011;61643;49.564;17.412;2024-03-08T10:27:21;33.70;;;14.48;;
73428;SDS011;61643;49.564;17.412;2024-03-08T10:29:47;43.45;;;17.58;;
73428;SDS011;61643;49.564;17.412;2024-03-08T10:32:14;46.85;;;21.27;;
73428;SDS011;61643;49.564;17.412;2024-03-08T10:34:40;36.30;;;16.58;;
73428;SDS011;61643;49.564;17.412;2024-03-08T10:37:07;36.03;;;15.30;;
73428;SDS011;61643;49.564;17.412;2024-03-08T10:39:38;36.53;;;15.73;;
73428;SDS011;61643;49.564;17.412;2024-03-08T10:42:09;32.30;;;14.40;;
73428;SDS011;61643;49.564;17.412;2024-03-08T10:44:50;37.83;;;15.95;;
73428;SDS011;61643;49.564;17.412;2024-03-08T10:47:26;37.47;;;15.10;;
73428;SDS011;61643;49.564;17.412;2024-03-08T10:50:01;35.70;;;16.02;;
73428;SDS011;61643;49.564;17.412;2024-03-08T10:52:38;36.85;;;14.90;;
73428;SDS011;61643;49.564;17.412;2024-03-08T10:55:05;38.05;;;16.05;;
73428;SDS011;61643;49.564;17.412;2024-03-08T10:57:40;38.30;;;15.70;;
73428;SDS011;61643;49.564;17.412;2024-03-08T11:00:07;36.28;;;15.18;;
73428;SDS011;61643;49.564;17.412;2024-03-08T11:02:37;34.22;;;14.57;;
73428;SDS011;61643;49.564;17.412;2024-03-08T11:05:03;32.58;;;13.88;;
73428;SDS011;61643;49.564;17.412;2024-03-08T11:07:34;29.02;;;14.20;;
73428;SDS011;61643;49.564;17.412;2024-03-08T11:10:03;30.75;;;14.20;;
73428;SDS011;61643;49.564;17.412;2024-03-08T11:12:35;38.25;;;15.57;;
73428;SDS011;61643;49.564;17.412;2024-03-08T11:15:09;35.58;;;14.57;;
73428;SDS011;61643;49.564;17.412;2024-03-08T11:20:12;33.15;;;15.07;;
73428;SDS011;61643;49.564;17.412;2024-03-08T11:22:42;34.20;;;14.75;;
73428;SDS011;61643;49.564;17.412;2024-03-08T11:28:13;32.72;;;14.65;;
73428;SDS011;61643;49.564;17.412;2024-03-08T11:30:43;33.28;;;14.30;;
73428;SDS011;61643;49.564;17.412;2024-03-08T11:33:24;31.50;;;13.45;;
73428;SDS011;61643;49.564;17.412;2024-03-08T11:38:45;31.83;;;14.73;;
73428;SDS011;61643;49.564;17.412;2024-03-08T11:41:15;39.55;;;15.43;;
73428;SDS011;61643;49.564;17.412;2024-03-08T11:43:48;31.77;;;14.32;;
73428;SDS011;61643;49.564;17.412;2024-03-08T11:46:15;35.28;;;15.13;;
73428;SDS011;61643;49.564;17.412;2024-03-08T11:48:42;29.98;;;14.05;;
73428;SDS011;61643;49.564;17.412;2024-03-08T11:51:10;33.17;;;14.25;;
73428;SDS011;61643;49.564;17.412;2024-03-08T11:53:38;32.40;;;13.50;;
73428;SDS011;61643;49.564;17.412;2024-03-08T11:56:11;30.35;;;12.88;;
73428;SDS011;61643;49.564;17.412;2024-03-08T11:58:38;29.02;;;13.40;;
73428;SDS011;61643;49.564;17.412;2024-03-08T12:01:09;32.28;;;13.82;;
73428;SDS011;61643;49.564;17.412;2024-03-08T12:03:39;29.20;;;13.10;;
73428;SDS011;61643;49.564;17.412;2024-03-08T12:06:08;29.67;;;13.10;;
73428;SDS011;61643;49.564;17.412;2024-03-08T12:08:37;28.92;;;13.75;;
73428;SDS011;61643;49.564;17.412;2024-03-08T12:11:03;29.40;;;12.20;;
73428;SDS011;61643;49.564;17.412;2024-03-08T12:13:33;31.70;;;12.23;;
73428;SDS011;61643;49.564;17.412;2024-03-08T12:16:00;29.13;;;12.98;;
73428;SDS011;61643;49.564;17.412;2024-03-08T12:18:33;27.33;;;12.93;;
73428;SDS011;61643;49.564;17.412;2024-03-08T12:23:36;30.77;;;13.38;;
73428;SDS011;61643;49.564;17.412;2024-03-08T12:26:09;28.00;;;12.98;;
73428;SDS011;61643;49.564;17.412;2024-03-08T12:28:40;31.55;;;13.65;;
73428;SDS011;61643;49.564;17.412;2024-03-08T12:31:07;34.50;;;14.45;;
73428;SDS011;61643;49.564;17.412;2024-03-08T12:34:00;33.58;;;14.15;;
73428;SDS011;61643;49.564;17.412;2024-03-08T12:36:26;21.20;;;9.82;;
73428;SDS011;61643;49.564;17.412;2024-03-08T12:38:53;19.75;;;9.32;;
73428;SDS011;61643;49.564;17.412;2024-03-08T12:41:20;20.98;;;9.40;;
73428;SDS011;61643;49.564;17.412;2024-03-08T12:43:46;19.48;;;9.32;;
73428;SDS011;61643;49.564;17.412;2024-03-08T12:46:16;23.83;;;10.48;;
73428;SDS011;61643;49.564;17.412;2024-03-08T12:48:47;19.27;;;10.00;;
73428;SDS011;61643;49.564;17.412;2024-03-08T12:51:14;21.90;;;9.75;;
73428;SDS011;61643;49.564;17.412;2024-03-08T12:53:44;20.83;;;10.50;;
73428;SDS011;61643;49.564;17.412;2024-03-08T12:56:19;23.33;;;10.85;;
73428;SDS011;61643;49.564;17.412;2024-03-08T12:58:54;26.17;;;11.35;;
73428;SDS011;61643;49.564;17.412;2024-03-08T13:01:20;25.77;;;11.07;;
73428;SDS011;61643;49.564;17.412;2024-03-08T13:03:46;21.85;;;10.38;;
73428;SDS011;61643;49.564;17.412;2024-03-08T13:06:12;25.73;;;11.75;;
73428;SDS011;61643;49.564;17.412;2024-03-08T13:08:38;23.90;;;12.00;;
73428;SDS011;61643;49.564;17.412;2024-03-08T13:11:07;23.35;;;10.77;;
73428;SDS011;61643;49.564;17.412;2024-03-08T13:13:35;21.63;;;10.70;;
73428;SDS011;61643;49.564;17.412;2024-03-08T13:16:02;23.17;;;11.00;;
73428;SDS011;61643;49.564;17.412;2024-03-08T13:18:29;24.63;;;11.45;;
73428;SDS011;61643;49.564;17.412;2024-03-08T13:20:55;25.42;;;11.18;;
73428;SDS011;61643;49.564;17.412;2024-03-08T13:23:23;23.05;;;10.82;;
73428;SDS011;61643;49.564;17.412;2024-03-08T13:25:49;23.48;;;10.80;;
73428;SDS011;61643;49.564;17.412;2024-03-08T13:28:15;24.63;;;10.82;;
73428;SDS011;61643;49.564;17.412;2024-03-08T13:30:41;21.75;;;10.55;;
73428;SDS011;61643;49.564;17.412;2024-03-08T13:33:07;20.95;;;9.98;;
73428;SDS011;61643;49.564;17.412;2024-03-08T13:35:33;20.60;;;10.32;;
73428;SDS011;61643;49.564;17.412;2024-03-08T13:38:00;21.73;;;10.10;;
73428;SDS011;61643;49.564;17.412;2024-03-08T13:40:29;23.73;;;10.60;;
73428;SDS011;61643;49.564;17.412;2024-03-08T13:42:56;20.02;;;9.70;;
73428;SDS011;61643;49.564;17.412;2024-03-08T13:45:22;19.63;;;9.68;;
73428;SDS011;61643;49.564;17.412;2024-03-08T13:47:49;20.73;;;9.63;;
73428;SDS011;61643;49.564;17.412;2024-03-08T13:50:19;21.25;;;10.60;;
73428;SDS011;61643;49.564;17.412;2024-03-08T13:52:49;23.05;;;10.88;;
73428;SDS011;61643;49.564;17.412;2024-03-08T13:55:17;27.05;;;12.48;;
73428;SDS011;61643;49.564;17.412;2024-03-08T13:57:43;24.55;;;11.13;;
73428;SDS011;61643;49.564;17.412;2024-03-08T14:00:11;24.05;;;11.80;;
73428;SDS011;61643;49.564;17.412;2024-03-08T14:02:38;22.90;;;11.15;;
73428;SDS011;61643;49.564;17.412;2024-03-08T14:07:34;21.13;;;10.48;;
73428;SDS011;61643;49.564;17.412;2024-03-08T14:10:01;23.38;;;11.93;;
73428;SDS011;61643;49.564;17.412;2024-03-08T14:12:27;30.05;;;13.73;;
73428;SDS011;61643;49.564;17.412;2024-03-08T14:14:53;33.55;;;14.77;;
73428;SDS011;61643;49.564;17.412;2024-03-08T14:17:19;32.88;;;14.55;;
73428;SDS011;61643;49.564;17.412;2024-03-08T14:19:45;29.30;;;13.85;;
73428;SDS011;61643;49.564;17.412;2024-03-08T14:22:11;30.30;;;13.68;;
73428;SDS011;61643;49.564;17.412;2024-03-08T14:24:40;30.58;;;14.63;;
73428;SDS011;61643;49.564;17.412;2024-03-08T14:27:08;32.67;;;15.20;;
73428;SDS011;61643;49.564;17.412;2024-03-08T14:29:38;47.17;;;18.65;;
73428;SDS011;61643;49.564;17.412;2024-03-08T14:32:04;43.03;;;18.35;;
73428;SDS011;61643;49.564;17.412;2024-03-08T14:34:32;31.25;;;14.80;;
73428;SDS011;61643;49.564;17.412;2024-03-08T14:36:59;37.28;;;17.90;;
73428;SDS011;61643;49.564;17.412;2024-03-08T14:39:26;46.22;;;21.73;;
73428;SDS011;61643;49.564;17.412;2024-03-08T14:41:54;29.25;;;13.48;;
73428;SDS011;61643;49.564;17.412;2024-03-08T14:44:22;31.27;;;14.23;;